sensor_id;sensor_type;location;lat;lon;timestamp;pressure;altitude;pressure_sealevel;temperature
79501;BMP180;76397;53.172;18.140;2024-03-08T00:00:01;101327.00;;;-2.20
79501;BMP180;76397;53.172;18.140;2024-03-08T00:02:58;101326.80;;;-2.20
79501;BMP180;76397;53.172;18.140;2024-03-08T00:05:28;101325.80;;;-2.30
79501;BMP180;76397;53.172;18.140;2024-03-08T00:07:55;101322.60;;;-2.30
79501;BMP180;76397;53.172;18.140;2024-03-08T00:10:22;101315.80;;;-2.40
79501;BMP180;76397;53.172;18.140;2024-03-08T00:12:48;101317.80;;;-2.40
79501;BMP180;76397;53.172;18.140;2024-03-08T00:15:17;101314.20;;;-2.40
79501;BMP180;76397;53.172;18.140;2024-03-08T00:17:44;101309.20;;;-2.40
79501;BMP180;76397;53.172;18.140;2024-03-08T00:20:11;101310.00;;;-2.34
79501;BMP180;76397;53.172;18.140;2024-03-08T00:22:40;101314.40;;;-2.30
79501;BMP180;76397;53.172;18.140;2024-03-08T00:25:08;101311.80;;;-2.30
79501;BMP180;76397;53.172;18.140;2024-03-08T00:27:38;101312.40;;;-2.22
79501;BMP180;76397;53.172;18.140;2024-03-08T00:30:06;101311.60;;;-2.30
79501;BMP180;76397;53.172;18.140;2024-03-08T00:32:33;101312.80;;;-2.30
79501;BMP180;76397;53.172;18.140;2024-03-08T00:35:00;101317.00;;;-2.30
79501;BMP180;76397;53.172;18.140;2024-03-08T00:37:27;101313.80;;;-2.30
79501;BMP180;76397;53.172;18.140;2024-03-08T00:39:53;101312.00;;;-2.40
79501;BMP180;76397;53.172;18.140;2024-03-08T00:42:20;101307.20;;;-2.40
79501;BMP180;76397;53.172;18.140;2024-03-08T00:44:47;101306.40;;;-2.40
79501;BMP180;76397;53.172;18.140;2024-03-08T00:47:17;101308.80;;;-2.40
79501;BMP180;76397;53.172;18.140;2024-03-08T00:49:44;101305.60;;;-2.38
79501;BMP180;76397;53.172;18.140;2024-03-08T00:52:11;101307.40;;;-2.30
79501;BMP180;76397;53.172;18.140;2024-03-08T00:54:37;101305.20;;;-2.30
79501;BMP180;76397;53.172;18.140;2024-03-08T00:57:05;101308.00;;;-2.22
79501;BMP180;76397;53.172;18.140;2024-03-08T00:59:33;101304.60;;;-2.20
79501;BMP180;76397;53.172;18.140;2024-03-08T01:02:01;101304.80;;;-2.20
79501;BMP180;76397;53.172;18.140;2024-03-08T01:04:28;101304.00;;;-2.20
79501;BMP180;76397;53.172;18.140;2024-03-08T01:06:59;101304.20;;;-2.20
79501;BMP180;76397;53.172;18.140;2024-03-08T01:09:26;101297.00;;;-2.30
79501;BMP180;76397;53.172;18.140;2024-03-08T01:11:54;101292.80;;;-2.50
79501;BMP180;76397;53.172;18.140;2024-03-08T01:14:23;101292.80;;;-2.60
79501;BMP180;76397;53.172;18.140;2024-03-08T01:16:50;101286.80;;;-2.70
79501;BMP180;76397;53.172;18.140;2024-03-08T01:19:17;101289.60;;;-2.70
79501;BMP180;76397;53.172;18.140;2024-03-08T01:21:44;101290.00;;;-2.60
79501;BMP180;76397;53.172;18.140;2024-03-08T01:24:11;101286.60;;;-2.50
79501;BMP180;76397;53.172;18.140;2024-03-08T01:26:37;101282.80;;;-2.40
79501;BMP180;76397;53.172;18.140;2024-03-08T01:29:05;101280.20;;;-2.34
79501;BMP180;76397;53.172;18.140;2024-03-08T01:31:33;101280.80;;;-2.40
79501;BMP180;76397;53.172;18.140;2024-03-08T01:33:59;101279.80;;;-2.48
79501;BMP180;76397;53.172;18.140;2024-03-08T01:36:26;101281.80;;;-2.60
79501;BMP180;76397;53.172;18.140;2024-03-08T01:38:53;101276.80;;;-2.62
79501;BMP180;76397;53.172;18.140;2024-03-08T01:41:20;101276.80;;;-2.70
79501;BMP180;76397;53.172;18.140;2024-03-08T01:43:46;101276.40;;;-2.70
79501;BMP180;76397;53.172;18.140;2024-03-08T01:46:19;101273.20;;;-2.70
79501;BMP180;76397;53.172;18.140;2024-03-08T01:48:48;101277.20;;;-2.64
79501;BMP180;76397;53.172;18.140;2024-03-08T01:51:18;101272.40;;;-2.60
79501;BMP180;76397;53.172;18.140;2024-03-08T01:53:46;101269.40;;;-2.60
79501;BMP180;76397;53.172;18.140;2024-03-08T01:56:14;101266.60;;;-2.60
79501;BMP180;76397;53.172;18.140;2024-03-08T01:58:42;101263.20;;;-2.54
79501;BMP180;76397;53.172;18.140;2024-03-08T02:01:12;101263.40;;;-2.60
79501;BMP180;76397;53.172;18.140;2024-03-08T02:03:42;101257.40;;;-2.60
79501;BMP180;76397;53.172;18.140;2024-03-08T02:06:13;101257.60;;;-2.60
79501;BMP180;76397;53.172;18.140;2024-03-08T02:08:45;101258.20;;;-2.60
79501;BMP180;76397;53.172;18.140;2024-03-08T02:11:13;101254.40;;;-2.60
79501;BMP180;76397;53.172;18.140;2024-03-08T02:13:40;101252.80;;;-2.60
79501;BMP180;76397;53.172;18.140;2024-03-08T02:16:07;101252.00;;;-2.50
79501;BMP180;76397;53.172;18.140;2024-03-08T02:18:34;101248.40;;;-2.50
79501;BMP180;76397;53.172;18.140;2024-03-08T02:21:03;101245.20;;;-2.50
79501;BMP180;76397;53.172;18.140;2024-03-08T02:23:32;101239.60;;;-2.50
79501;BMP180;76397;53.172;18.140;2024-03-08T02:25:59;101238.20;;;-2.50
79501;BMP180;76397;53.172;18.140;2024-03-08T02:28:26;101243.60;;;-2.50
79501;BMP180;76397;53.172;18.140;2024-03-08T02:30:53;101242.20;;;-2.56
79501;BMP180;76397;53.172;18.140;2024-03-08T02:33:23;101240.80;;;-2.60
79501;BMP180;76397;53.172;18.140;2024-03-08T02:35:50;101237.80;;;-2.60
79501;BMP180;76397;53.172;18.140;2024-03-08T02:38:22;101238.80;;;-2.60
79501;BMP180;76397;53.172;18.140;2024-03-08T02:40:52;101235.60;;;-2.60
79501;BMP180;76397;53.172;18.140;2024-03-08T02:43:21;101233.60;;;-2.58
79501;BMP180;76397;53.172;18.140;2024-03-08T02:45:51;101236.00;;;-2.52
79501;BMP180;76397;53.172;18.140;2024-03-08T02:48:19;101232.20;;;-2.50
79501;BMP180;76397;53.172;18.140;2024-03-08T02:50:47;101234.40;;;-2.40
79501;BMP180;76397;53.172;18.140;2024-03-08T02:53:14;101234.00;;;-2.40
79501;BMP180;76397;53.172;18.140;2024-03-08T02:55:41;101232.40;;;-2.50
79501;BMP180;76397;53.172;18.140;2024-03-08T02:58:09;101228.00;;;-2.50
79501;BMP180;76397;53.172;18.140;2024-03-08T03:00:37;101233.20;;;-2.50
79501;BMP180;76397;53.172;18.140;2024-03-08T03:03:05;101228.40;;;-2.54
79501;BMP180;76397;53.172;18.140;2024-03-08T03:05:33;101231.60;;;-2.60
79501;BMP180;76397;53.172;18.140;2024-03-08T03:08:00;101231.00;;;-2.70
79501;BMP180;76397;53.172;18.140;2024-03-08T03:10:27;101229.60;;;-2.80
79501;BMP180;76397;53.172;18.140;2024-03-08T03:12:54;101227.60;;;-2.80
79501;BMP180;76397;53.172;18.140;2024-03-08T03:15:21;101227.20;;;-2.80
79501;BMP180;76397;53.172;18.140;2024-03-08T03:17:50;101227.00;;;-2.80
79501;BMP180;76397;53.172;18.140;2024-03-08T03:20:19;101223.80;;;-2.70
79501;BMP180;76397;53.172;18.140;2024-03-08T03:22:59;101228.60;;;-2.60
79501;BMP180;76397;53.172;18.140;2024-03-08T03:25:30;101224.80;;;-2.60
79501;BMP180;76397;53.172;18.140;2024-03-08T03:28:02;101223.40;;;-2.60
79501;BMP180;76397;53.172;18.140;2024-03-08T03:30:29;101224.60;;;-2.68
79501;BMP180;76397;53.172;18.140;2024-03-08T03:33:03;101216.60;;;-2.70
79501;BMP180;76397;53.172;18.140;2024-03-08T03:35:36;101218.40;;;-2.80
79501;BMP180;76397;53.172;18.140;2024-03-08T03:38:03;101217.60;;;-2.84
79501;BMP180;76397;53.172;18.140;2024-03-08T03:40:31;101218.40;;;-2.90
79501;BMP180;76397;53.172;18.140;2024-03-08T03:42:58;101212.60;;;-2.90
79501;BMP180;76397;53.172;18.140;2024-03-08T03:45:24;101212.20;;;-2.88
79501;BMP180;76397;53.172;18.140;2024-03-08T03:47:51;101216.80;;;-2.80
79501;BMP180;76397;53.172;18.140;2024-03-08T03:50:19;101217.00;;;-2.72
79501;BMP180;76397;53.172;18.140;2024-03-08T03:52:46;101215.00;;;-2.70
79501;BMP180;76397;53.172;18.140;2024-03-08T03:55:15;101216.60;;;-2.60
79501;BMP180;76397;53.172;18.140;2024-03-08T03:57:41;101216.80;;;-2.60
79501;BMP180;76397;53.172;18.140;2024-03-08T04:00:09;101215.80;;;-2.60
79501;BMP180;76397;53.172;18.140;2024-03-08T04:02:40;101213.20;;;-2.62
79501;BMP180;76397;53.172;18.140;2024-03-08T04:05:09;101211.60;;;-2.70
79501;BMP180;76397;53.172;18.140;2024-03-08T04:07:37;101210.80;;;-2.70
79501;BMP180;76397;53.172;18.140;2024-03-08T04:10:07;101212.00;;;-2.70
79501;BMP180;76397;53.172;18.140;2024-03-08T04:12:35;101210.40;;;-2.68
79501;BMP180;76397;53.172;18.140;2024-03-08T04:15:03;101218.20;;;-2.60
79501;BMP180;76397;53.172;18.140;2024-03-08T04:17:30;101216.00;;;-2.60
79501;BMP180;76397;53.172;18.140;2024-03-08T04:19:56;101213.60;;;-2.50
79501;BMP180;76397;53.172;18.140;2024-03-08T04:22:23;101211.40;;;-2.44
79501;BMP180;76397;53.172;18.140;2024-03-08T04:24:50;101204.00;;;-2.40
79501;BMP180;76397;53.172;18.140;2024-03-08T04:27:17;101203.60;;;-2.30
79501;BMP180;76397;53.172;18.140;2024-03-08T04:29:44;101200.00;;;-2.30
79501;BMP180;76397;53.172;18.140;2024-03-08T04:32:10;101200.20;;;-2.40
79501;BMP180;76397;53.172;18.140;2024-03-08T04:34:40;101199.00;;;-2.40
79501;BMP180;76397;53.172;18.140;2024-03-08T04:37:07;101198.80;;;-2.50
79501;BMP180;76397;53.172;18.140;2024-03-08T04:39:37;101199.60;;;-2.50
79501;BMP180;76397;53.172;18.140;2024-03-08T04:42:05;101194.40;;;-2.50
79501;BMP180;76397;53.172;18.140;2024-03-08T04:44:37;101195.00;;;-2.50
79501;BMP180;76397;53.172;18.140;2024-03-08T04:47:04;101194.40;;;-2.40
79501;BMP180;76397;53.172;18.140;2024-03-08T04:49:34;101191.20;;;-2.30
79501;BMP180;76397;53.172;18.140;2024-03-08T04:52:03;101188.80;;;-2.40
79501;BMP180;76397;53.172;18.140;2024-03-08T04:54:30;101185.20;;;-2.40
79501;BMP180;76397;53.172;18.140;2024-03-08T04:56:57;101191.20;;;-2.40
79501;BMP180;76397;53.172;18.140;2024-03-08T04:59:27;101188.60;;;-2.50
79501;BMP180;76397;53.172;18.140;2024-03-08T05:01:54;101187.20;;;-2.50
79501;BMP180;76397;53.172;18.140;2024-03-08T05:04:21;101184.80;;;-2.58
79501;BMP180;76397;53.172;18.140;2024-03-08T05:06:48;101187.20;;;-2.60
79501;BMP180;76397;53.172;18.140;2024-03-08T05:09:15;101183.20;;;-2.68
79501;BMP180;76397;53.172;18.140;2024-03-08T05:11:43;101187.00;;;-2.70
79501;BMP180;76397;53.172;18.140;2024-03-08T05:14:14;101183.00;;;-2.70
79501;BMP180;76397;53.172;18.140;2024-03-08T05:16:44;101189.00;;;-2.70
79501;BMP180;76397;53.172;18.140;2024-03-08T05:19:20;101186.20;;;-2.68
79501;BMP180;76397;53.172;18.140;2024-03-08T05:21:48;101189.80;;;-2.70
79501;BMP180;76397;53.172;18.140;2024-03-08T05:24:16;101186.80;;;-2.60
79501;BMP180;76397;53.172;18.140;2024-03-08T05:26:44;101189.80;;;-2.60
79501;BMP180;76397;53.172;18.140;2024-03-08T05:29:11;101182.60;;;-2.60
79501;BMP180;76397;53.172;18.140;2024-03-08T05:31:50;101183.40;;;-2.54
79501;BMP180;76397;53.172;18.140;2024-03-08T05:34:17;101186.00;;;-2.60
79501;BMP180;76397;53.172;18.140;2024-03-08T05:36:46;101183.80;;;-2.60
79501;BMP180;76397;53.172;18.140;2024-03-08T05:39:13;101179.20;;;-2.60
79501;BMP180;76397;53.172;18.140;2024-03-08T05:41:43;101181.60;;;-2.60
79501;BMP180;76397;53.172;18.140;2024-03-08T05:44:12;101182.60;;;-2.60
79501;BMP180;76397;53.172;18.140;2024-03-08T05:46:39;101181.40;;;-2.50
79501;BMP180;76397;53.172;18.140;2024-03-08T05:49:07;101180.20;;;-2.42
79501;BMP180;76397;53.172;18.140;2024-03-08T05:51:38;101178.60;;;-2.40
79501;BMP180;76397;53.172;18.140;2024-03-08T05:54:10;101182.00;;;-2.30
79501;BMP180;76397;53.172;18.140;2024-03-08T05:56:39;101183.00;;;-2.30
79501;BMP180;76397;53.172;18.140;2024-03-08T05:59:11;101180.80;;;-2.20
79501;BMP180;76397;53.172;18.140;2024-03-08T06:01:38;101182.00;;;-2.10
79501;BMP180;76397;53.172;18.140;2024-03-08T06:04:07;101181.20;;;-2.00
79501;BMP180;76397;53.172;18.140;2024-03-08T06:06:34;101178.60;;;-1.90
79501;BMP180;76397;53.172;18.140;2024-03-08T06:09:01;101177.40;;;-1.90
79501;BMP180;76397;53.172;18.140;2024-03-08T06:11:35;101181.40;;;-1.80
79501;BMP180;76397;53.172;18.140;2024-03-08T06:14:02;101184.40;;;-1.80
79501;BMP180;76397;53.172;18.140;2024-03-08T06:16:29;101181.80;;;-1.80
79501;BMP180;76397;53.172;18.140;2024-03-08T06:18:58;101179.60;;;-1.80
79501;BMP180;76397;53.172;18.140;2024-03-08T06:21:25;101184.20;;;-1.80
79501;BMP180;76397;53.172;18.140;2024-03-08T06:23:54;101182.40;;;-1.80
79501;BMP180;76397;53.172;18.140;2024-03-08T06:26:22;101179.40;;;-1.60
79501;BMP180;76397;53.172;18.140;2024-03-08T06:28:48;101186.40;;;-1.40
79501;BMP180;76397;53.172;18.140;2024-03-08T06:31:15;101183.60;;;-1.30
79501;BMP180;76397;53.172;18.140;2024-03-08T06:33:42;101181.80;;;-1.30
79501;BMP180;76397;53.172;18.140;2024-03-08T06:36:10;101185.60;;;-1.30
79501;BMP180;76397;53.172;18.140;2024-03-08T06:38:39;101183.60;;;-1.30
79501;BMP180;76397;53.172;18.140;2024-03-08T06:41:09;101187.40;;;-1.20
79501;BMP180;76397;53.172;18.140;2024-03-08T06:43:46;101183.40;;;-1.20
79501;BMP180;76397;53.172;18.140;2024-03-08T06:46:15;101185.80;;;-1.20
79501;BMP180;76397;53.172;18.140;2024-03-08T06:48:42;101178.80;;;-1.10
79501;BMP180;76397;53.172;18.140;2024-03-08T06:51:08;101183.00;;;-1.00
79501;BMP180;76397;53.172;18.140;2024-03-08T06:53:37;101184.80;;;-1.00
79501;BMP180;76397;53.172;18.140;2024-03-08T06:56:05;101187.60;;;-0.80
79501;BMP180;76397;53.172;18.140;2024-03-08T06:58:31;101185.40;;;-0.70
79501;BMP180;76397;53.172;18.140;2024-03-08T07:00:59;101180.80;;;-0.70
79501;BMP180;76397;53.172;18.140;2024-03-08T07:03:27;101184.40;;;-0.60
79501;BMP180;76397;53.172;18.140;2024-03-08T07:05:56;101187.80;;;-0.50
79501;BMP180;76397;53.172;18.140;2024-03-08T07:08:25;101191.60;;;-0.50
79501;BMP180;76397;53.172;18.140;2024-03-08T07:10:54;101189.00;;;-0.50
79501;BMP180;76397;53.172;18.140;2024-03-08T07:13:21;101189.00;;;-0.40
79501;BMP180;76397;53.172;18.140;2024-03-08T07:15:48;101190.00;;;-0.34
79501;BMP180;76397;53.172;18.140;2024-03-08T07:18:15;101187.00;;;-0.40
79501;BMP180;76397;53.172;18.140;2024-03-08T07:20:42;101183.20;;;-0.48
79501;BMP180;76397;53.172;18.140;2024-03-08T07:23:10;101187.40;;;-0.50
79501;BMP180;76397;53.172;18.140;2024-03-08T07:25:37;101182.40;;;-0.40
79501;BMP180;76397;53.172;18.140;2024-03-08T07:28:05;101186.80;;;-0.36
79501;BMP180;76397;53.172;18.140;2024-03-08T07:30:33;101184.40;;;-0.30
79501;BMP180;76397;53.172;18.140;2024-03-08T07:33:12;101185.80;;;-0.20
79501;BMP180;76397;53.172;18.140;2024-03-08T07:35:39;101189.80;;;-0.18
79501;BMP180;76397;53.172;18.140;2024-03-08T07:38:08;101189.60;;;-0.10
79501;BMP180;76397;53.172;18.140;2024-03-08T07:40:41;101182.80;;;0.00
79501;BMP180;76397;53.172;18.140;2024-03-08T07:43:11;101185.00;;;0.00
79501;BMP180;76397;53.172;18.140;2024-03-08T07:45:39;101179.00;;;0.02
79501;BMP180;76397;53.172;18.140;2024-03-08T07:48:06;101178.80;;;0.10
79501;BMP180;76397;53.172;18.140;2024-03-08T07:50:40;101178.00;;;0.10
79501;BMP180;76397;53.172;18.140;2024-03-08T07:53:08;101176.60;;;0.10
79501;BMP180;76397;53.172;18.140;2024-03-08T07:55:36;101177.40;;;0.20
79501;BMP180;76397;53.172;18.140;2024-03-08T07:58:03;101167.00;;;1.54
79501;BMP180;76397;53.172;18.140;2024-03-08T08:00:30;101177.80;;;4.06
79501;BMP180;76397;53.172;18.140;2024-03-08T08:03:00;101176.80;;;6.20
79501;BMP180;76397;53.172;18.140;2024-03-08T08:05:28;101179.40;;;7.78
79501;BMP180;76397;53.172;18.140;2024-03-08T08:07:54;101177.20;;;9.00
79501;BMP180;76397;53.172;18.140;2024-03-08T08:10:21;101178.40;;;10.14
79501;BMP180;76397;53.172;18.140;2024-03-08T08:12:49;101178.20;;;11.04
79501;BMP180;76397;53.172;18.140;2024-03-08T08:15:16;101180.80;;;11.54
79501;BMP180;76397;53.172;18.140;2024-03-08T08:17:43;101180.00;;;12.18
79501;BMP180;76397;53.172;18.140;2024-03-08T08:20:12;101179.40;;;13.10
79501;BMP180;76397;53.172;18.140;2024-03-08T08:22:39;101182.00;;;13.72
79501;BMP180;76397;53.172;18.140;2024-03-08T08:25:07;101186.60;;;14.20
79501;BMP180;76397;53.172;18.140;2024-03-08T08:27:34;101184.80;;;14.50
79501;BMP180;76397;53.172;18.140;2024-03-08T08:30:05;101193.20;;;14.96
79501;BMP180;76397;53.172;18.140;2024-03-08T08:32:38;101192.20;;;15.70
79501;BMP180;76397;53.172;18.140;2024-03-08T08:35:10;101188.80;;;16.40
79501;BMP180;76397;53.172;18.140;2024-03-08T08:37:39;101185.80;;;16.70
79501;BMP180;76397;53.172;18.140;2024-03-08T08:40:07;101190.40;;;17.00
79501;BMP180;76397;53.172;18.140;2024-03-08T08:42:40;101188.60;;;17.20
79501;BMP180;76397;53.172;18.140;2024-03-08T08:45:09;101186.40;;;17.44
79501;BMP180;76397;53.172;18.140;2024-03-08T08:47:36;101181.60;;;16.52
79501;BMP180;76397;53.172;18.140;2024-03-08T08:50:04;101181.40;;;15.90
79501;BMP180;76397;53.172;18.140;2024-03-08T08:52:32;101184.80;;;16.20
79501;BMP180;76397;53.172;18.140;2024-03-08T08:54:59;101186.00;;;16.58
79501;BMP180;76397;53.172;18.140;2024-03-08T08:57:26;101185.00;;;16.60
79501;BMP180;76397;53.172;18.140;2024-03-08T08:59:54;101184.60;;;17.04
79501;BMP180;76397;53.172;18.140;2024-03-08T09:02:21;101181.40;;;17.12
79501;BMP180;76397;53.172;18.140;2024-03-08T09:04:48;101181.80;;;16.70
79501;BMP180;76397;53.172;18.140;2024-03-08T09:07:15;101178.00;;;15.90
79501;BMP180;76397;53.172;18.140;2024-03-08T09:09:42;101173.60;;;15.40
79501;BMP180;76397;53.172;18.140;2024-03-08T09:12:10;101174.20;;;15.42
79501;BMP180;76397;53.172;18.140;2024-03-08T09:14:43;101171.60;;;16.02
79501;BMP180;76397;53.172;18.140;2024-03-08T09:17:10;101170.60;;;15.82
79501;BMP180;76397;53.172;18.140;2024-03-08T09:19:36;101169.40;;;15.50
79501;BMP180;76397;53.172;18.140;2024-03-08T09:22:06;101171.60;;;15.50
79501;BMP180;76397;53.172;18.140;2024-03-08T09:24:33;101175.20;;;15.60
79501;BMP180;76397;53.172;18.140;2024-03-08T09:26:59;101177.00;;;16.02
79501;BMP180;76397;53.172;18.140;2024-03-08T09:29:26;101181.00;;;16.14
79501;BMP180;76397;53.172;18.140;2024-03-08T09:31:53;101172.40;;;16.32
79501;BMP180;76397;53.172;18.140;2024-03-08T09:34:20;101172.40;;;16.78
79501;BMP180;76397;53.172;18.140;2024-03-08T09:36:47;101173.20;;;17.10
79501;BMP180;76397;53.172;18.140;2024-03-08T09:39:13;101176.80;;;17.00
79501;BMP180;76397;53.172;18.140;2024-03-08T09:41:43;101177.60;;;17.30
79501;BMP180;76397;53.172;18.140;2024-03-08T09:44:10;101171.60;;;17.46
79501;BMP180;76397;53.172;18.140;2024-03-08T09:46:37;101170.60;;;17.50
79501;BMP180;76397;53.172;18.140;2024-03-08T09:49:04;101165.80;;;17.50
79501;BMP180;76397;53.172;18.140;2024-03-08T09:51:34;101170.80;;;17.40
79501;BMP180;76397;53.172;18.140;2024-03-08T09:54:04;101167.80;;;17.02
79501;BMP180;76397;53.172;18.140;2024-03-08T09:56:35;101164.80;;;16.50
79501;BMP180;76397;53.172;18.140;2024-03-08T09:59:03;101165.80;;;16.60
79501;BMP180;76397;53.172;18.140;2024-03-08T10:01:38;101160.20;;;16.56
79501;BMP180;76397;53.172;18.140;2024-03-08T10:04:06;101157.20;;;16.40
79501;BMP180;76397;53.172;18.140;2024-03-08T10:06:33;101155.80;;;16.02
79501;BMP180;76397;53.172;18.140;2024-03-08T10:09:00;101153.20;;;16.26
79501;BMP180;76397;53.172;18.140;2024-03-08T10:11:26;101152.80;;;16.02
79501;BMP180;76397;53.172;18.140;2024-03-08T10:13:54;101153.20;;;15.96
79501;BMP180;76397;53.172;18.140;2024-03-08T10:16:21;101154.80;;;16.00
79501;BMP180;76397;53.172;18.140;2024-03-08T10:18:50;101155.80;;;16.20
79501;BMP180;76397;53.172;18.140;2024-03-08T10:21:18;101157.20;;;16.20
79501;BMP180;76397;53.172;18.140;2024-03-08T10:23:46;101161.20;;;16.14
79501;BMP180;76397;53.172;18.140;2024-03-08T10:26:18;101152.40;;;15.20
79501;BMP180;76397;53.172;18.140;2024-03-08T10:28:49;101153.80;;;15.30
79501;BMP180;76397;53.172;18.140;2024-03-08T10:31:17;101152.80;;;15.30
79501;BMP180;76397;53.172;18.140;2024-03-08T10:33:44;101153.60;;;14.96
79501;BMP180;76397;53.172;18.140;2024-03-08T10:36:14;101151.20;;;14.60
79501;BMP180;76397;53.172;18.140;2024-03-08T10:38:43;101147.40;;;14.62
79501;BMP180;76397;53.172;18.140;2024-03-08T10:41:13;101149.20;;;14.16
79501;BMP180;76397;53.172;18.140;2024-03-08T10:47:02;101141.00;;;13.52
79501;BMP180;76397;53.172;18.140;2024-03-08T10:49:38;101134.40;;;12.90
79501;BMP180;76397;53.172;18.140;2024-03-08T10:52:06;101136.40;;;12.54
79501;BMP180;76397;53.172;18.140;2024-03-08T10:54:37;101136.00;;;11.90
79501;BMP180;76397;53.172;18.140;2024-03-08T10:57:09;101131.60;;;11.50
79501;BMP180;76397;53.172;18.140;2024-03-08T10:59:37;101126.00;;;11.14
79501;BMP180;76397;53.172;18.140;2024-03-08T11:02:06;101126.20;;;10.82
79501;BMP180;76397;53.172;18.140;2024-03-08T11:04:32;101120.00;;;10.50
79501;BMP180;76397;53.172;18.140;2024-03-08T11:07:01;101118.20;;;10.22
79501;BMP180;76397;53.172;18.140;2024-03-08T11:09:36;101118.00;;;9.86
79501;BMP180;76397;53.172;18.140;2024-03-08T11:12:25;101119.40;;;9.78
79501;BMP180;76397;53.172;18.140;2024-03-08T11:15:00;101114.60;;;9.60
79501;BMP180;76397;53.172;18.140;2024-03-08T11:19:59;101116.00;;;9.30
79501;BMP180;76397;53.172;18.140;2024-03-08T11:22:32;101108.60;;;9.10
79501;BMP180;76397;53.172;18.140;2024-03-08T11:25:03;101109.80;;;8.92
79501;BMP180;76397;53.172;18.140;2024-03-08T11:27:38;101105.00;;;8.80
79501;BMP180;76397;53.172;18.140;2024-03-08T11:30:08;101106.20;;;8.80
79501;BMP180;76397;53.172;18.140;2024-03-08T11:32:38;101102.60;;;8.80
79501;BMP180;76397;53.172;18.140;2024-03-08T11:35:21;101100.00;;;8.80
79501;BMP180;76397;53.172;18.140;2024-03-08T11:37:49;101102.00;;;8.66
79501;BMP180;76397;53.172;18.140;2024-03-08T11:40:17;101094.20;;;8.60
79501;BMP180;76397;53.172;18.140;2024-03-08T11:42:47;101092.00;;;8.54
79501;BMP180;76397;53.172;18.140;2024-03-08T11:45:15;101086.40;;;8.50
79501;BMP180;76397;53.172;18.140;2024-03-08T11:47:44;101080.60;;;8.40
79501;BMP180;76397;53.172;18.140;2024-03-08T11:50:15;101079.20;;;8.30
79501;BMP180;76397;53.172;18.140;2024-03-08T11:52:43;101076.40;;;8.30
79501;BMP180;76397;53.172;18.140;2024-03-08T11:55:11;101075.40;;;8.40
79501;BMP180;76397;53.172;18.140;2024-03-08T11:57:39;101070.60;;;8.30
79501;BMP180;76397;53.172;18.140;2024-03-08T12:00:15;101069.80;;;8.20
79501;BMP180;76397;53.172;18.140;2024-03-08T12:03:04;101060.60;;;8.10
79501;BMP180;76397;53.172;18.140;2024-03-08T12:05:33;101056.40;;;8.10
79501;BMP180;76397;53.172;18.140;2024-03-08T12:08:02;101058.40;;;8.10
79501;BMP180;76397;53.172;18.140;2024-03-08T12:10:29;101052.60;;;8.02
79501;BMP180;76397;53.172;18.140;2024-03-08T12:12:58;101050.40;;;8.10
79501;BMP180;76397;53.172;18.140;2024-03-08T12:15:31;101049.00;;;8.22
79501;BMP180;76397;53.172;18.140;2024-03-08T12:18:00;101049.40;;;8.30
79501;BMP180;76397;53.172;18.140;2024-03-08T12:20:29;101042.00;;;8.40
79501;BMP180;76397;53.172;18.140;2024-03-08T12:22:59;101042.20;;;8.40
79501;BMP180;76397;53.172;18.140;2024-03-08T12:25:33;101042.80;;;8.40
79501;BMP180;76397;53.172;18.140;2024-03-08T12:28:09;101040.00;;;8.40
79501;BMP180;76397;53.172;18.140;2024-03-08T12:30:48;101039.20;;;8.40
79501;BMP180;76397;53.172;18.140;2024-03-08T12:33:15;101035.40;;;8.40
79501;BMP180;76397;53.172;18.140;2024-03-08T12:35:52;101035.40;;;8.40
79501;BMP180;76397;53.172;18.140;2024-03-08T12:38:23;101033.20;;;8.30
79501;BMP180;76397;53.172;18.140;2024-03-08T12:40:58;101030.00;;;8.40
79501;BMP180;76397;53.172;18.140;2024-03-08T12:43:25;101032.40;;;8.40
79501;BMP180;76397;53.172;18.140;2024-03-08T12:45:52;101028.80;;;8.50
79501;BMP180;76397;53.172;18.140;2024-03-08T12:48:19;101025.00;;;8.40
79501;BMP180;76397;53.172;18.140;2024-03-08T12:50:47;101019.60;;;8.34
79501;BMP180;76397;53.172;18.140;2024-03-08T12:53:14;101019.60;;;8.48
79501;BMP180;76397;53.172;18.140;2024-03-08T12:55:41;101014.60;;;8.30
79501;BMP180;76397;53.172;18.140;2024-03-08T12:58:08;101013.20;;;8.30
79501;BMP180;76397;53.172;18.140;2024-03-08T13:00:35;101009.00;;;8.30
79501;BMP180;76397;53.172;18.140;2024-03-08T13:03:06;101009.20;;;8.20
79501;BMP180;76397;53.172;18.140;2024-03-08T13:05:33;101004.20;;;8.24
79501;BMP180;76397;53.172;18.140;2024-03-08T13:08:00;101006.40;;;8.30
79501;BMP180;76397;53.172;18.140;2024-03-08T13:10:27;101003.20;;;8.30
79501;BMP180;76397;53.172;18.140;2024-03-08T13:12:54;101003.20;;;8.30
79501;BMP180;76397;53.172;18.140;2024-03-08T13:15:21;100999.40;;;8.20
79501;BMP180;76397;53.172;18.140;2024-03-08T13:17:48;100996.80;;;8.20
79501;BMP180;76397;53.172;18.140;2024-03-08T13:20:15;100996.80;;;8.22
79501;BMP180;76397;53.172;18.140;2024-03-08T13:22:46;100992.00;;;8.24
79501;BMP180;76397;53.172;18.140;2024-03-08T13:25:15;100990.80;;;8.40
79501;BMP180;76397;53.172;18.140;2024-03-08T13:27:42;100987.60;;;8.50
79501;BMP180;76397;53.172;18.140;2024-03-08T13:30:10;100987.20;;;8.40
79501;BMP180;76397;53.172;18.140;2024-03-08T13:32:41;100984.80;;;8.50
79501;BMP180;76397;53.172;18.140;2024-03-08T13:35:13;100982.00;;;8.50
79501;BMP180;76397;53.172;18.140;2024-03-08T13:37:41;100984.00;;;8.50
79501;BMP180;76397;53.172;18.140;2024-03-08T13:40:09;100979.00;;;8.60
79501;BMP180;76397;53.172;18.140;2024-03-08T13:42:40;100974.60;;;8.78
79501;BMP180;76397;53.172;18.140;2024-03-08T13:45:09;100969.40;;;8.70
79501;BMP180;76397;53.172;18.140;2024-03-08T13:47:39;100972.20;;;8.60
79501;BMP180;76397;53.172;18.140;2024-03-08T13:50:10;100965.40;;;8.40
79501;BMP180;76397;53.172;18.140;2024-03-08T13:52:44;100963.80;;;8.40
79501;BMP180;76397;53.172;18.140;2024-03-08T13:55:11;100957.40;;;8.38
79501;BMP180;76397;53.172;18.140;2024-03-08T13:57:39;100959.00;;;8.22
79501;BMP180;76397;53.172;18.140;2024-03-08T14:00:07;100953.20;;;8.20